Suula — OJKZ — position and weather

sailwx.info

Track history (hours):
 
Tides and Currents Weather Stations Pressure Air Temp Water Temp Dewpoint Dewpoint Depression Visibility Wind Speed Wind Dir Waves Ship Positions

Suula

Last reported at 2017-Sep-26 08:04 UTC. Time now 2017-Sep-26 12:56 UTC.
Position N 56°11' E 017°02'.

Length 140 m; draft 6.5 m.

Type: Tanker. MMSI: 230956996.

Date/timePositionNaut miles runAvg speedWind from/ knotsBaromVisibWave heightAir tempDewpointWater temp
2017-Sep-26 08:04N 56°11' E 017°02'110.1
2017-Sep-26 08:00N 56°10' E 017°01'610.0
2017-Sep-26 07:27N 56°07' E 016°53'612.7
2017-Sep-26 07:00N 56°03' E 016°45'713.4
2017-Sep-26 06:30N 55°60' E 016°35'713.4
2017-Sep-26 06:00N 55°56' E 016°24'713.5
2017-Sep-26 05:30N 55°53' E 016°14'713.6
2017-Sep-26 05:00N 55°50' E 016°03'713.8
2017-Sep-26 04:30N 55°47' E 015°53'713.7
2017-Sep-26 04:00N 55°43' E 015°42'713.8
2017-Sep-26 03:31N 55°40' E 015°31'713.9
2017-Sep-26 03:00N 55°36' E 015°20'713.6
2017-Sep-26 02:30N 55°33' E 015°10'713.8
2017-Sep-26 02:00N 55°30' E 014°59'713.8
2017-Sep-26 01:30N 55°26' E 014°49'713.6
2017-Sep-26 01:00N 55°23' E 014°38'713.7
2017-Sep-26 00:30N 55°18' E 014°31'713.7
2017-Sep-26 00:00N 55°12' E 014°23'713.8
2017-Sep-25 23:30N 55°07' E 014°16'713.8
2017-Sep-25 23:00N 55°02' E 014°08'1513.9
2017-Sep-25 21:56N 54°57' E 013°43'1813.9
2017-Sep-25 20:36N 54°51' E 013°13'113.6
2017-Sep-25 20:30N 54°51' E 013°11'713.6
2017-Sep-25 20:00N 54°48' E 012°59'713.5
2017-Sep-25 19:30N 54°46' E 012°48'2213.0
2017-Sep-25 17:50N 54°33' E 012°18'413.1
2017-Sep-25 17:30N 54°29' E 012°16'2411.7
2017-Sep-25 15:29N 54°27' E 011°35'612.7
2017-Sep-25 15:00N 54°30' E 011°26'612.0
2017-Sep-25 14:30N 54°33' E 011°16'611.9
2017-Sep-25 14:00N 54°36' E 011°08'611.5
2017-Sep-25 13:30N 54°39' E 010°60'611.5
2017-Sep-25 13:00N 54°43' E 010°52'612.1
2017-Sep-25 12:30N 54°49' E 010°52'611.4
2017-Sep-25 12:00N 54°54' E 010°54'612.1
2017-Sep-25 11:30N 54°59' E 011°00'612.5
2017-Sep-25 11:00N 55°05' E 011°02'611.8
2017-Sep-25 10:30N 55°11' E 011°04'611.4
2017-Sep-25 09:59N 55°17' E 011°03'8411.4
2017-Sep-25 02:37N 56°38' E 011°44'2712.2
2017-Sep-25 00:26N 57°04' E 011°40'612.9
2017-Sep-24 23:56N 57°10' E 011°37'613.1
2017-Sep-24 23:30N 57°16' E 011°37'713.3
2017-Sep-24 22:59N 57°23' E 011°37'613.5
2017-Sep-24 22:30N 57°29' E 011°37'613.0
2017-Sep-24 22:00N 57°36' E 011°39'713.4
2017-Sep-24 21:30N 57°40' E 011°48'3 6.4
2017-Sep-24 21:01N 57°41' E 011°53'0 0.0
2017-Sep-24 20:30N 57°41' E 011°53'0 0.0
2017-Sep-24 20:00N 57°41' E 011°53'0 0.0
2017-Sep-24 19:30N 57°41' E 011°53'0 0.0
2017-Sep-24 19:00N 57°41' E 011°53'0 0.0
2017-Sep-24 18:30N 57°41' E 011°53'0 0.0
2017-Sep-24 18:00N 57°41' E 011°53'0 0.0
2017-Sep-24 17:30N 57°41' E 011°53'0 0.0
2017-Sep-24 17:00N 57°41' E 011°53'0 0.0
2017-Sep-24 16:30N 57°41' E 011°53'0 0.0
2017-Sep-24 16:00N 57°41' E 011°53'0 0.0
2017-Sep-24 15:30N 57°41' E 011°53'0 0.0
2017-Sep-24 15:00N 57°41' E 011°53'0 0.0
2017-Sep-24 14:30N 57°41' E 011°53'0 0.0
2017-Sep-24 14:00N 57°41' E 011°53'0 0.0
2017-Sep-24 13:30N 57°41' E 011°53'0 0.0
2017-Sep-24 13:00N 57°41' E 011°53'0 0.0
2017-Sep-24 12:30N 57°41' E 011°53'0 0.0
2017-Sep-24 12:00N 57°41' E 011°53'0 0.0
2017-Sep-24 11:30N 57°41' E 011°53'0 0.0
2017-Sep-24 11:00N 57°41' E 011°53'0 0.0
2017-Sep-24 10:30N 57°41' E 011°53'0 0.0
2017-Sep-24 10:00N 57°41' E 011°53'0 0.0
2017-Sep-24 09:30N 57°41' E 011°53'0 0.0
2017-Sep-24 09:00N 57°41' E 011°53'0 0.0
2017-Sep-24 08:30N 57°41' E 011°53'0 0.0
2017-Sep-24 08:00N 57°41' E 011°53'0 0.0
2017-Sep-24 07:30N 57°41' E 011°53'0 0.0
2017-Sep-24 07:00N 57°41' E 011°53'0 0.0
2017-Sep-24 06:30N 57°41' E 011°53'0 0.0
2017-Sep-24 06:00N 57°41' E 011°53'0 0.0
2017-Sep-24 05:30N 57°41' E 011°53'0 0.0
2017-Sep-24 05:00N 57°41' E 011°53'0 0.0
2017-Sep-24 04:30N 57°41' E 011°53'0 0.0
2017-Sep-24 04:00N 57°41' E 011°53'0 0.0
2017-Sep-24 03:30N 57°41' E 011°53'0 0.0
2017-Sep-24 03:00N 57°41' E 011°53'0 0.0
2017-Sep-24 02:30N 57°41' E 011°53'0 0.0
2017-Sep-24 02:00N 57°41' E 011°53'0 0.0
2017-Sep-24 01:30N 57°41' E 011°53'0 0.0
2017-Sep-24 01:00N 57°41' E 011°53'0 0.0
2017-Sep-24 00:30N 57°41' E 011°53'0 0.0
2017-Sep-24 00:00N 57°41' E 011°53'0 0.0
2017-Sep-23 23:30N 57°41' E 011°53'0 0.0
2017-Sep-23 23:00N 57°41' E 011°53'0 0.0
2017-Sep-23 22:30N 57°41' E 011°53'0 0.0
2017-Sep-23 22:00N 57°41' E 011°53'0 0.0
2017-Sep-23 21:30N 57°41' E 011°53'0 0.0
2017-Sep-23 21:00N 57°41' E 011°53'0 0.7
2017-Sep-23 20:30N 57°41' E 011°53'3 6.4
2017-Sep-23 20:00N 57°40' E 011°47'  
Track history (hours):
 
Tides and Currents Weather Stations Pressure Air Temp Water Temp Dewpoint Dewpoint Depression Visibility Wind Speed Wind Dir Waves Ship Positions

Suula

Last reported at 2017-Sep-26 08:04 UTC. Time now 2017-Sep-26 12:56 UTC.
Position N 56°11' E 017°02'.

Length 140 m; draft 6.5 m.

Type: Tanker. MMSI: 230956996.

Date/timePositionNaut miles runAvg speedWind from/ knotsBaromVisibWave heightAir tempDewpointWater temp
2017-Sep-26 08:04N 56°11' E 017°02'110.1
2017-Sep-26 08:00N 56°10' E 017°01'610.0
2017-Sep-26 07:27N 56°07' E 016°53'612.7
2017-Sep-26 07:00N 56°03' E 016°45'713.4
2017-Sep-26 06:30N 55°60' E 016°35'713.4
2017-Sep-26 06:00N 55°56' E 016°24'713.5
2017-Sep-26 05:30N 55°53' E 016°14'713.6
2017-Sep-26 05:00N 55°50' E 016°03'713.8
2017-Sep-26 04:30N 55°47' E 015°53'713.7
2017-Sep-26 04:00N 55°43' E 015°42'713.8
2017-Sep-26 03:31N 55°40' E 015°31'713.9
2017-Sep-26 03:00N 55°36' E 015°20'713.6
2017-Sep-26 02:30N 55°33' E 015°10'713.8
2017-Sep-26 02:00N 55°30' E 014°59'713.8
2017-Sep-26 01:30N 55°26' E 014°49'713.6
2017-Sep-26 01:00N 55°23' E 014°38'713.7
2017-Sep-26 00:30N 55°18' E 014°31'713.7
2017-Sep-26 00:00N 55°12' E 014°23'713.8
2017-Sep-25 23:30N 55°07' E 014°16'713.8
2017-Sep-25 23:00N 55°02' E 014°08'1513.9
2017-Sep-25 21:56N 54°57' E 013°43'1813.9
2017-Sep-25 20:36N 54°51' E 013°13'113.6
2017-Sep-25 20:30N 54°51' E 013°11'713.6
2017-Sep-25 20:00N 54°48' E 012°59'713.5
2017-Sep-25 19:30N 54°46' E 012°48'2213.0
2017-Sep-25 17:50N 54°33' E 012°18'413.1
2017-Sep-25 17:30N 54°29' E 012°16'2411.7
2017-Sep-25 15:29N 54°27' E 011°35'612.7
2017-Sep-25 15:00N 54°30' E 011°26'612.0
2017-Sep-25 14:30N 54°33' E 011°16'611.9
2017-Sep-25 14:00N 54°36' E 011°08'611.5
2017-Sep-25 13:30N 54°39' E 010°60'611.5
2017-Sep-25 13:00N 54°43' E 010°52'612.1
2017-Sep-25 12:30N 54°49' E 010°52'611.4
2017-Sep-25 12:00N 54°54' E 010°54'612.1
2017-Sep-25 11:30N 54°59' E 011°00'612.5
2017-Sep-25 11:00N 55°05' E 011°02'611.8
2017-Sep-25 10:30N 55°11' E 011°04'611.4
2017-Sep-25 09:59N 55°17' E 011°03'8411.4
2017-Sep-25 02:37N 56°38' E 011°44'2712.2
2017-Sep-25 00:26N 57°04' E 011°40'612.9
2017-Sep-24 23:56N 57°10' E 011°37'613.1
2017-Sep-24 23:30N 57°16' E 011°37'713.3
2017-Sep-24 22:59N 57°23' E 011°37'613.5
2017-Sep-24 22:30N 57°29' E 011°37'613.0
2017-Sep-24 22:00N 57°36' E 011°39'713.4
2017-Sep-24 21:30N 57°40' E 011°48'3 6.4
2017-Sep-24 21:01N 57°41' E 011°53'0 0.0
2017-Sep-24 20:30N 57°41' E 011°53'0 0.0
2017-Sep-24 20:00N 57°41' E 011°53'0 0.0
2017-Sep-24 19:30N 57°41' E 011°53'0 0.0
2017-Sep-24 19:00N 57°41' E 011°53'0 0.0
2017-Sep-24 18:30N 57°41' E 011°53'0 0.0
2017-Sep-24 18:00N 57°41' E 011°53'0 0.0
2017-Sep-24 17:30N 57°41' E 011°53'0 0.0
2017-Sep-24 17:00N 57°41' E 011°53'0 0.0
2017-Sep-24 16:30N 57°41' E 011°53'0 0.0
2017-Sep-24 16:00N 57°41' E 011°53'0 0.0
2017-Sep-24 15:30N 57°41' E 011°53'0 0.0
2017-Sep-24 15:00N 57°41' E 011°53'0 0.0
2017-Sep-24 14:30N 57°41' E 011°53'0 0.0
2017-Sep-24 14:00N 57°41' E 011°53'0 0.0
2017-Sep-24 13:30N 57°41' E 011°53'0 0.0
2017-Sep-24 13:00N 57°41' E 011°53'0 0.0
2017-Sep-24 12:30N 57°41' E 011°53'0 0.0
2017-Sep-24 12:00N 57°41' E 011°53'0 0.0
2017-Sep-24 11:30N 57°41' E 011°53'0 0.0
2017-Sep-24 11:00N 57°41' E 011°53'0 0.0
2017-Sep-24 10:30N 57°41' E 011°53'0 0.0
2017-Sep-24 10:00N 57°41' E 011°53'0 0.0
2017-Sep-24 09:30N 57°41' E 011°53'0 0.0
2017-Sep-24 09:00N 57°41' E 011°53'0 0.0
2017-Sep-24 08:30N 57°41' E 011°53'0 0.0
2017-Sep-24 08:00N 57°41' E 011°53'0 0.0
2017-Sep-24 07:30N 57°41' E 011°53'0 0.0
2017-Sep-24 07:00N 57°41' E 011°53'0 0.0
2017-Sep-24 06:30N 57°41' E 011°53'0 0.0
2017-Sep-24 06:00N 57°41' E 011°53'0 0.0
2017-Sep-24 05:30N 57°41' E 011°53'0 0.0
2017-Sep-24 05:00N 57°41' E 011°53'0 0.0
2017-Sep-24 04:30N 57°41' E 011°53'0 0.0
2017-Sep-24 04:00N 57°41' E 011°53'0 0.0
2017-Sep-24 03:30N 57°41' E 011°53'0 0.0
2017-Sep-24 03:00N 57°41' E 011°53'0 0.0
2017-Sep-24 02:30N 57°41' E 011°53'0 0.0
2017-Sep-24 02:00N 57°41' E 011°53'0 0.0
2017-Sep-24 01:30N 57°41' E 011°53'0 0.0
2017-Sep-24 01:00N 57°41' E 011°53'0 0.0
2017-Sep-24 00:30N 57°41' E 011°53'0 0.0
2017-Sep-24 00:00N 57°41' E 011°53'0 0.0
2017-Sep-23 23:30N 57°41' E 011°53'0 0.0
2017-Sep-23 23:00N 57°41' E 011°53'0 0.0
2017-Sep-23 22:30N 57°41' E 011°53'0 0.0
2017-Sep-23 22:00N 57°41' E 011°53'0 0.0
2017-Sep-23 21:30N 57°41' E 011°53'0 0.0
2017-Sep-23 21:00N 57°41' E 011°53'0 0.7
2017-Sep-23 20:30N 57°41' E 011°53'3 6.4
2017-Sep-23 20:00N 57°40' E 011°47'  

Dump ship's entire track history